Time;durP1;ratioP1;P1;durP2;ratioP2;P2;SDS_P1;SDS_P2;PMS_P1;PMS_P2;Temp;Humidity;BMP_temperature;BMP_pressure;BME280_temperature;BME280_humidity;BME280_pressure;Samples;Min_cycle;Max_cycle;Signal;HPM_P1;HPM_P2
2023/12/19 00:13:13;;;;;;;35.20;16.80;;;;;;;9.59;100.00;100593.16;682217;1261;139066;-82
2023/12/19 00:28:50;;;;;;;35.30;18.90;;;;;;;9.72;100.00;100580.79;682273;1263;139885;-83
2023/12/19 00:44:27;;;;;;;48.70;22.30;;;;;;;9.67;100.00;100580.10;681981;1267;139230;-82
2023/12/19 01:00:06;;;;;;;50.80;23.60;;;;;;;9.74;100.00;100555.87;681692;1263;140365;-82
2023/12/19 01:15:43;;;;;;;40.70;22.70;;;;;;;9.69;100.00;100546.50;682062;1264;139557;-82
2023/12/19 01:31:20;;;;;;;57.90;27.50;;;;;;;9.53;100.00;100534.96;681993;1260;140680;-82
2023/12/19 01:46:57;;;;;;;69.20;34.40;;;;;;;9.60;100.00;100508.97;681978;1263;139984;-82
2023/12/19 02:02:34;;;;;;;123.20;49.00;;;;;;;9.55;100.00;100490.34;681920;1264;138924;-83
2023/12/19 02:18:28;;;;;;;56.20;25.60;;;;;;;9.44;100.00;100489.59;681760;1261;140235;-82
2023/12/19 02:34:05;;;;;;;54.90;28.40;;;;;;;9.53;100.00;100475.23;674297;1261;10138118;-82
2023/12/19 02:49:42;;;;;;;49.80;23.60;;;;;;;9.47;100.00;100442.76;681942;1265;141067;-82
2023/12/19 03:05:21;;;;;;;48.50;23.30;;;;;;;9.49;100.00;100415.86;681788;1262;139492;-82
2023/12/19 03:21:00;;;;;;;44.60;22.50;;;;;;;9.49;100.00;100401.60;682076;1261;140158;-81
2023/12/19 03:36:37;;;;;;;48.50;24.00;;;;;;;9.44;100.00;100394.48;682044;1263;139464;-82
2023/12/19 03:52:15;;;;;;;41.10;20.00;;;;;;;9.44;99.96;100387.10;681983;1265;140333;-81
2023/12/19 04:07:53;;;;;;;38.30;17.50;;;;;;;9.37;99.67;100381.09;682058;1264;139920;-81
2023/12/19 04:23:32;;;;;;;41.30;19.30;;;;;;;9.18;99.92;100352.42;682037;1259;139772;-81
2023/12/19 04:39:09;;;;;;;32.80;17.00;;;;;;;9.17;100.00;100329.14;682338;1261;140006;-81
2023/12/19 04:54:46;;;;;;;42.30;21.30;;;;;;;9.16;99.98;100345.91;682169;1259;141619;-80
2023/12/19 05:10:24;;;;;;;50.60;21.20;;;;;;;9.14;100.00;100367.37;682302;1262;138810;-82
2023/12/19 05:26:03;;;;;;;43.30;20.30;;;;;;;9.26;99.90;100355.98;682329;1259;139137;-84
2023/12/19 05:41:40;;;;;;;89.00;38.00;;;;;;;9.36;99.84;100363.89;682062;1263;139308;-83
2023/12/19 05:57:17;;;;;;;108.50;44.40;;;;;;;9.33;100.00;100372.86;682160;1261;139047;-84
2023/12/19 06:12:54;;;;;;;42.80;19.50;;;;;;;9.22;100.00;100358.02;681897;1263;139817;-82
2023/12/19 06:28:33;;;;;;;66.80;28.20;;;;;;;9.28;99.81;100340.04;681974;1263;139249;-85
2023/12/19 06:44:13;;;;;;;36.60;20.10;;;;;;;9.37;99.76;100356.07;682131;1261;139516;-80
2023/12/19 06:59:50;;;;;;;40.80;20.60;;;;;;;9.26;99.87;100346.67;682187;1262;139570;-81
2023/12/19 07:15:27;;;;;;;54.60;23.40;;;;;;;9.34;100.00;100366.60;682417;1260;139748;-83
2023/12/19 07:31:04;;;;;;;48.10;21.40;;;;;;;9.49;99.97;100357.56;682109;1262;141127;-81
2023/12/19 07:46:45;;;;;;;84.10;30.00;;;;;;;9.46;99.83;100357.16;682109;1260;139047;-82
2023/12/19 08:02:23;;;;;;;112.40;39.60;;;;;;;9.48;100.00;100335.09;682518;1259;139404;-80
2023/12/19 08:18:00;;;;;;;51.40;23.80;;;;;;;9.53;100.00;100316.71;682291;1259;139311;-81
2023/12/19 08:33:41;;;;;;;74.70;31.20;;;;;;;9.58;100.00;100317.88;682425;1262;139221;-82
2023/12/19 08:49:18;;;;;;;121.60;47.20;;;;;;;9.56;100.00;100304.10;682140;1259;139925;-82
2023/12/19 09:04:56;;;;;;;68.50;33.10;;;;;;;9.54;100.00;100286.23;682253;1264;139394;-83
2023/12/19 09:20:34;;;;;;;57.50;27.50;;;;;;;9.51;100.00;100280.08;682261;1259;138959;-83
2023/12/19 09:36:17;;;;;;;60.30;27.30;;;;;;;9.62;100.00;100271.41;682186;1260;139782;-84
2023/12/19 09:51:56;;;;;;;46.20;21.00;;;;;;;9.69;100.00;100260.79;682422;1262;139194;-80
2023/12/19 10:07:37;;;;;;;55.20;24.00;;;;;;;9.84;99.92;100247.27;682131;1263;139494;-82
2023/12/19 10:23:14;;;;;;;47.90;21.20;;;;;;;9.81;100.00;100228.80;682138;1262;138934;-83
2023/12/19 10:38:52;;;;;;;56.90;22.80;;;;;;;9.89;99.81;100180.47;682407;1263;139197;-80
2023/12/19 10:54:31;;;;;;;199.60;82.20;;;;;;;9.95;99.00;100170.15;682137;1263;140732;-82
2023/12/19 11:10:13;;;;;;;105.10;44.90;;;;;;;9.78;99.32;100157.45;682298;1264;139354;-80
2023/12/19 11:26:04;;;;;;;52.10;22.30;;;;;;;9.68;99.81;100145.25;682157;1263;138994;-81
2023/12/19 11:41:44;;;;;;;66.10;34.20;;;;;;;9.72;99.97;100127.98;682203;1264;138781;-81
2023/12/19 11:57:27;;;;;;;46.30;22.50;;;;;;;9.78;99.87;100107.91;682268;1264;139285;-81
2023/12/19 12:13:05;;;;;;;41.20;20.80;;;;;;;9.84;99.73;100091.13;682297;1263;139816;-82
2023/12/19 12:28:42;;;;;;;36.10;19.50;;;;;;;10.10;98.11;100065.06;682255;1263;140255;-80
2023/12/19 12:44:19;;;;;;;93.90;62.50;;;;;;;9.98;99.15;100048.34;682237;1260;138950;-81
2023/12/19 12:59:56;;;;;;;71.70;37.60;;;;;;;10.04;99.66;100052.38;682109;1265;138831;-82
2023/12/19 13:15:43;;;;;;;45.30;26.50;;;;;;;10.04;99.75;100022.85;682137;1263;139509;-80
2023/12/19 13:31:21;;;;;;;71.70;32.70;;;;;;;9.89;100.00;100003.15;682100;1266;139565;-81
2023/12/19 13:46:58;;;;;;;36.30;18.90;;;;;;;9.69;100.00;99977.34;682238;1260;139648;-80
2023/12/19 14:02:37;;;;;;;38.60;21.80;;;;;;;9.51;100.00;99977.67;682267;1262;139008;-80
2023/12/19 14:34:18;;;;;;;26.80;15.40;;;;;;;9.38;100.00;99927.02;674522;1264;10138017;-79
2023/12/19 14:49:57;;;;;;;21.70;12.60;;;;;;;9.39;100.00;99921.33;682130;1265;139188;-80
2023/12/19 15:05:35;;;;;;;24.40;13.70;;;;;;;9.38;100.00;99918.23;682230;1265;139458;-80
2023/12/19 15:21:12;;;;;;;34.20;16.90;;;;;;;9.30;100.00;99900.11;682416;1266;139791;-81
2023/12/19 15:36:50;;;;;;;27.00;14.50;;;;;;;9.32;100.00;99863.67;682287;1265;140193;-80
2023/12/19 15:52:28;;;;;;;27.20;14.70;;;;;;;9.13;100.00;99819.84;681933;1265;139217;-80
2023/12/19 16:08:17;;;;;;;12.50;7.90;;;;;;;9.23;100.00;99822.95;682077;1268;139086;-81
2023/12/19 16:23:53;;;;;;;14.00;8.70;;;;;;;9.29;100.00;99805.46;681807;1265;138638;-82
2023/12/19 16:39:33;;;;;;;15.60;10.70;;;;;;;9.30;100.00;99792.84;682193;1260;138704;-81
2023/12/19 16:55:12;;;;;;;25.00;14.90;;;;;;;9.13;100.00;99771.63;681950;1260;139613;-80
2023/12/19 17:10:49;;;;;;;23.10;13.00;;;;;;;9.28;100.00;99754.23;682140;1264;139264;-81
2023/12/19 17:26:26;;;;;;;20.30;10.20;;;;;;;9.29;100.00;99723.47;682284;1263;139632;-81
2023/12/19 17:42:04;;;;;;;69.10;26.00;;;;;;;9.18;100.00;99718.46;681950;1263;139794;-84
2023/12/19 17:57:41;;;;;;;48.30;22.20;;;;;;;9.33;100.00;99697.44;682033;1264;140014;-82
2023/12/19 18:13:18;;;;;;;43.30;19.30;;;;;;;9.29;100.00;99682.93;681869;1265;138632;-82
2023/12/19 18:28:55;;;;;;;70.00;34.80;;;;;;;9.36;100.00;99674.48;681923;1265;140512;-82
2023/12/19 18:44:32;;;;;;;53.90;21.70;;;;;;;9.37;100.00;99658.61;682333;1260;139184;-82
2023/12/19 19:00:13;;;;;;;27.80;14.80;;;;;;;9.32;100.00;99642.77;682082;1264;140497;-82
2023/12/19 19:15:53;;;;;;;27.70;13.00;;;;;;;9.33;100.00;99611.80;681982;1263;139799;-83
2023/12/19 19:31:32;;;;;;;84.60;34.50;;;;;;;9.25;100.00;99616.69;682147;1263;139799;-83
2023/12/19 19:47:25;;;;;;;115.30;44.80;;;;;;;9.29;100.00;99605.82;682198;1260;139162;-81
2023/12/19 20:03:02;;;;;;;55.50;24.20;;;;;;;9.44;100.00;99596.02;682203;1265;138982;-84
2023/12/19 20:18:41;;;;;;;32.10;15.80;;;;;;;9.40;100.00;99578.81;682265;1260;138735;-82
2023/12/19 20:34:18;;;;;;;19.90;12.10;;;;;;;9.40;100.00;99560.46;682395;1263;138652;-82
2023/12/19 20:49:55;;;;;;;21.90;11.70;;;;;;;9.47;100.00;99540.52;682340;1263;139193;-82
2023/12/19 21:05:32;;;;;;;22.80;11.70;;;;;;;9.47;100.00;99540.31;682076;1261;139554;-82
2023/12/19 21:21:09;;;;;;;21.20;11.50;;;;;;;9.46;100.00;99537.73;682371;1263;138980;-82
2023/12/19 21:36:52;;;;;;;27.00;13.50;;;;;;;9.43;100.00;99506.59;682315;1263;141214;-82
2023/12/19 21:52:29;;;;;;;17.50;10.20;;;;;;;9.41;100.00;99482.04;682159;1263;139349;-81
2023/12/19 22:08:05;;;;;;;18.90;11.20;;;;;;;9.48;100.00;99473.31;682230;1263;138717;-82
2023/12/19 22:23:42;;;;;;;21.00;12.50;;;;;;;9.68;100.00;99457.27;682193;1263;139995;-81
2023/12/19 22:39:21;;;;;;;19.00;10.90;;;;;;;9.65;100.00;99436.77;682416;1259;139597;-81
2023/12/19 22:54:57;;;;;;;20.10;11.10;;;;;;;9.63;100.00;99429.46;681829;1275;140349;-81
2023/12/19 23:10:38;;;;;;;15.70;10.10;;;;;;;9.45;100.00;99410.09;682124;1262;139579;-84
2023/12/19 23:26:15;;;;;;;31.00;15.40;;;;;;;9.56;100.00;99395.98;682287;1262;139741;-82
2023/12/19 23:41:52;;;;;;;56.80;24.80;;;;;;;9.54;100.00;99382.34;682110;1262;138920;-83
2023/12/19 23:57:29;;;;;;;110.40;39.80;;;;;;;9.45;100.00;99379.52;682320;1265;138464;-83
